Time;durP1;ratioP1;P1;durP2;ratioP2;P2;SDS_P1;SDS_P2;PMS_P1;PMS_P2;Temp;Humidity;BMP_temperature;BMP_pressure;BME280_temperature;BME280_humidity;BME280_pressure;Samples;Min_cycle;Max_cycle;Signal;HPM_P1;HPM_P2
2024/01/17 00:00:27;;;;;;;19.15;17.60;;;0.80;99.90;;;;;;5044455;28;20075;-84
2024/01/17 00:02:53;;;;;;;17.90;16.33;;;0.80;99.90;;;;;;5030717;28;20440;-84
2024/01/17 00:05:19;;;;;;;19.70;18.33;;;0.70;99.90;;;;;;5031068;28;20489;-83
2024/01/17 00:07:44;;;;;;;19.38;17.88;;;0.70;99.90;;;;;;5030327;28;20041;-86
2024/01/17 00:10:10;;;;;;;18.92;17.35;;;0.70;99.90;;;;;;5031539;28;20049;-84
2024/01/17 00:12:36;;;;;;;17.88;16.15;;;0.70;99.90;;;;;;5017270;28;20137;-84
2024/01/17 00:15:01;;;;;;;19.63;16.98;;;0.60;99.90;;;;;;5026118;28;20144;-84
2024/01/17 00:17:28;;;;;;;20.02;18.30;;;0.60;99.90;;;;;;5026686;28;20571;-83
2024/01/17 00:19:54;;;;;;;22.40;20.55;;;0.50;99.90;;;;;;5024782;28;20072;-84
2024/01/17 00:22:19;;;;;;;18.80;17.27;;;0.50;99.90;;;;;;5026132;28;20118;-83
2024/01/17 00:24:45;;;;;;;18.63;17.08;;;0.50;99.90;;;;;;5038571;28;20095;-83
2024/01/17 00:27:13;;;;;;;18.75;17.45;;;0.50;99.90;;;;;;5025812;28;20497;-84
2024/01/17 00:29:39;;;;;;;21.48;19.67;;;0.50;99.90;;;;;;5029680;28;20041;-84
2024/01/17 00:32:04;;;;;;;18.80;17.20;;;0.50;99.90;;;;;;5048161;28;20058;-84
2024/01/17 00:34:30;;;;;;;18.77;17.38;;;0.50;99.90;;;;;;5035823;28;20144;-84
2024/01/17 00:36:56;;;;;;;18.85;17.20;;;0.50;99.90;;;;;;5018326;28;20041;-84
2024/01/17 00:39:24;;;;;;;19.92;18.33;;;0.50;99.90;;;;;;5028978;28;20569;-84
2024/01/17 00:41:50;;;;;;;20.40;18.90;;;0.60;99.90;;;;;;5027824;28;20604;-84
2024/01/17 00:44:18;;;;;;;19.13;17.52;;;0.60;99.90;;;;;;5022299;28;20042;-82
2024/01/17 00:46:44;;;;;;;19.55;17.77;;;0.60;99.90;;;;;;5039112;28;20087;-85
2024/01/17 00:49:11;;;;;;;20.33;18.67;;;0.60;99.90;;;;;;5039903;28;20041;-84
2024/01/17 00:51:37;;;;;;;18.52;17.10;;;0.70;99.90;;;;;;5017172;28;20047;-85
2024/01/17 00:54:03;;;;;;;19.17;17.50;;;0.70;99.90;;;;;;5043174;28;20049;-83
2024/01/17 00:56:32;;;;;;;19.77;17.88;;;0.70;99.90;;;;;;5047255;28;20171;-84
2024/01/17 00:58:58;;;;;;;20.08;18.30;;;0.70;99.90;;;;;;5043835;28;20045;-85
2024/01/17 01:01:24;;;;;;;20.65;18.88;;;0.70;99.90;;;;;;5047042;28;20044;-85
2024/01/17 01:03:49;;;;;;;19.70;18.10;;;0.70;99.90;;;;;;5045033;28;20493;-84
2024/01/17 01:06:15;;;;;;;20.42;18.67;;;0.70;99.90;;;;;;5029802;28;20481;-84
2024/01/17 01:08:40;;;;;;;22.13;20.45;;;0.80;99.90;;;;;;5040327;28;20037;-84
2024/01/17 01:11:07;;;;;;;24.23;22.35;;;0.80;99.90;;;;;;5027701;28;20029;-85
2024/01/17 01:13:33;;;;;;;22.38;20.45;;;0.80;99.90;;;;;;5041861;28;20397;-85
2024/01/17 01:15:58;;;;;;;22.50;20.55;;;0.80;99.90;;;;;;5035692;28;20071;-84
2024/01/17 01:18:24;;;;;;;21.33;19.55;;;0.80;99.90;;;;;;5024899;28;20037;-84
2024/01/17 01:20:49;;;;;;;22.48;20.42;;;0.80;99.90;;;;;;5039853;28;20041;-84
2024/01/17 01:23:15;;;;;;;21.15;19.55;;;0.80;99.90;;;;;;5042183;28;20611;-84
2024/01/17 01:25:41;;;;;;;23.40;21.67;;;0.80;99.90;;;;;;5039655;28;20044;-84
2024/01/17 01:28:06;;;;;;;22.42;20.63;;;0.80;99.90;;;;;;5038349;28;20036;-84
2024/01/17 01:30:32;;;;;;;21.45;19.50;;;0.80;99.90;;;;;;5041220;28;20087;-84
2024/01/17 01:32:58;;;;;;;22.27;20.50;;;0.80;99.90;;;;;;5043827;28;20041;-85
2024/01/17 01:35:23;;;;;;;22.75;20.98;;;0.80;99.90;;;;;;5024534;28;20045;-84
2024/01/17 01:37:49;;;;;;;22.75;20.67;;;0.80;99.90;;;;;;5042405;28;20064;-84
2024/01/17 01:40:14;;;;;;;22.17;20.42;;;0.80;99.90;;;;;;5039678;28;20052;-85
2024/01/17 01:42:43;;;;;;;25.23;23.42;;;0.80;99.90;;;;;;5040925;28;20048;-84
2024/01/17 01:45:09;;;;;;;19.35;17.65;;;0.80;99.90;;;;;;5028693;28;20045;-84
2024/01/17 01:47:36;;;;;;;22.05;19.95;;;0.80;99.90;;;;;;5030700;28;20052;-84
2024/01/17 01:50:05;;;;;;;22.95;20.88;;;0.80;99.90;;;;;;5022032;28;20367;-84
2024/01/17 01:52:34;;;;;;;29.17;26.92;;;0.80;99.90;;;;;;5026315;28;20045;-84
2024/01/17 01:55:01;;;;;;;22.80;20.95;;;0.80;99.90;;;;;;5047078;28;20106;-84
2024/01/17 01:57:29;;;;;;;22.20;20.17;;;0.70;99.90;;;;;;5026815;28;20047;-84
2024/01/17 01:59:56;;;;;;;20.92;19.30;;;0.70;99.90;;;;;;5044287;28;20040;-86
2024/01/17 02:02:23;;;;;;;21.30;19.50;;;0.70;99.90;;;;;;5042341;28;20563;-84
2024/01/17 02:04:52;;;;;;;24.45;22.35;;;0.70;99.90;;;;;;5041322;28;20502;-84
2024/01/17 02:07:18;;;;;;;21.80;19.88;;;0.60;99.90;;;;;;5035513;28;20041;-85
2024/01/17 02:09:44;;;;;;;24.88;22.98;;;0.70;99.90;;;;;;5036854;28;20045;-84
2024/01/17 02:12:11;;;;;;;23.73;21.52;;;0.70;99.90;;;;;;5041312;28;20041;-84
2024/01/17 02:14:40;;;;;;;22.38;20.48;;;0.60;99.90;;;;;;5017366;28;20413;-84
2024/01/17 02:17:07;;;;;;;23.80;21.60;;;0.60;99.90;;;;;;5044943;28;20051;-84
2024/01/17 02:19:33;;;;;;;26.00;23.98;;;0.60;99.90;;;;;;5023128;28;20408;-85
2024/01/17 02:21:58;;;;;;;24.45;22.17;;;0.60;99.90;;;;;;5024226;28;20466;-84
2024/01/17 02:24:24;;;;;;;24.70;21.98;;;0.60;99.90;;;;;;5035947;28;20044;-84
2024/01/17 02:26:50;;;;;;;24.00;22.02;;;0.50;99.90;;;;;;5022442;28;20044;-84
2024/01/17 02:29:16;;;;;;;24.83;22.67;;;0.60;99.90;;;;;;5041075;28;20051;-84
2024/01/17 02:31:44;;;;;;;23.75;21.73;;;0.60;99.90;;;;;;5038418;28;20077;-85
2024/01/17 02:34:10;;;;;;;25.52;23.15;;;0.60;99.90;;;;;;5026730;28;20492;-84
2024/01/17 02:36:36;;;;;;;42.33;39.17;;;0.60;99.90;;;;;;5043809;28;20512;-84
2024/01/17 02:39:01;;;;;;;23.25;21.23;;;0.50;99.90;;;;;;5027729;28;20052;-84
2024/01/17 02:41:27;;;;;;;25.00;22.83;;;0.50;99.90;;;;;;5034894;28;20037;-84
2024/01/17 02:43:53;;;;;;;24.80;22.40;;;0.50;99.90;;;;;;5044224;28;20032;-85
2024/01/17 02:46:19;;;;;;;24.92;22.83;;;0.60;99.90;;;;;;5051759;28;20044;-83
2024/01/17 02:48:44;;;;;;;25.17;22.88;;;0.50;99.90;;;;;;5047835;28;20037;-84
2024/01/17 02:51:10;;;;;;;26.30;23.90;;;0.50;99.90;;;;;;5050776;28;20040;-85
2024/01/17 02:53:36;;;;;;;24.95;22.83;;;0.50;99.90;;;;;;5051747;28;20040;-83
2024/01/17 02:56:01;;;;;;;24.40;22.00;;;0.50;99.90;;;;;;5051652;28;20041;-86
2024/01/17 02:58:27;;;;;;;24.20;22.30;;;0.50;99.90;;;;;;5033289;28;20489;-84
2024/01/17 03:00:53;;;;;;;25.98;23.67;;;0.40;99.90;;;;;;5026769;28;20052;-84
2024/01/17 03:03:18;;;;;;;25.77;23.55;;;0.40;99.90;;;;;;5051324;28;20044;-85
2024/01/17 03:05:44;;;;;;;23.90;21.85;;;0.40;99.90;;;;;;5048839;28;20050;-85
2024/01/17 03:08:10;;;;;;;25.20;22.90;;;0.40;99.90;;;;;;5045572;28;20051;-85
2024/01/17 03:10:35;;;;;;;24.42;22.23;;;0.40;99.90;;;;;;5052547;28;20037;-84
2024/01/17 03:13:02;;;;;;;26.38;23.83;;;0.40;99.90;;;;;;5034625;28;20045;-84
2024/01/17 03:15:27;;;;;;;26.30;23.92;;;0.40;99.90;;;;;;5050998;28;20048;-85
2024/01/17 03:17:55;;;;;;;27.02;24.77;;;0.40;99.90;;;;;;5031957;28;20045;-85
2024/01/17 03:20:21;;;;;;;24.52;22.45;;;0.40;99.90;;;;;;5050104;28;20048;-85
2024/01/17 03:22:47;;;;;;;24.95;22.75;;;0.40;99.90;;;;;;5052541;28;20044;-85
2024/01/17 03:25:15;;;;;;;25.08;22.77;;;0.40;99.90;;;;;;5068956;28;20511;-84
2024/01/17 03:27:41;;;;;;;26.65;24.10;;;0.30;99.90;;;;;;5049435;28;20055;-84
2024/01/17 03:30:08;;;;;;;25.15;22.60;;;0.30;99.90;;;;;;5033969;28;20036;-84
2024/01/17 03:32:33;;;;;;;25.70;23.45;;;0.30;99.90;;;;;;5051564;28;20040;-84
2024/01/17 03:34:59;;;;;;;27.80;25.48;;;0.30;99.90;;;;;;5068076;28;20527;-85
2024/01/17 03:37:25;;;;;;;26.52;24.42;;;0.30;99.90;;;;;;5043803;28;20051;-85
2024/01/17 03:39:51;;;;;;;27.45;24.92;;;0.30;99.90;;;;;;5050305;28;20045;-85
2024/01/17 03:42:16;;;;;;;28.20;25.55;;;0.20;99.90;;;;;;5051612;28;20037;-84
2024/01/17 03:44:43;;;;;;;27.58;25.08;;;0.20;99.90;;;;;;5068511;28;20024;-84
2024/01/17 03:47:10;;;;;;;26.83;24.42;;;0.30;99.90;;;;;;5048262;28;20052;-84
2024/01/17 03:49:35;;;;;;;27.27;24.67;;;0.30;99.90;;;;;;5032626;28;20037;-85
2024/01/17 03:52:01;;;;;;;25.33;22.92;;;0.30;99.90;;;;;;5032555;28;20109;-83
2024/01/17 03:54:27;;;;;;;25.42;22.90;;;0.30;99.90;;;;;;5050804;28;20149;-84
2024/01/17 03:56:52;;;;;;;25.65;23.27;;;0.30;99.90;;;;;;5035530;28;20028;-85
2024/01/17 03:59:18;;;;;;;24.90;22.58;;;0.20;99.90;;;;;;5032530;28;20459;-85
2024/01/17 04:01:45;;;;;;;26.92;24.73;;;0.20;99.90;;;;;;5049257;28;20040;-85
2024/01/17 04:04:11;;;;;;;26.60;24.20;;;0.20;99.90;;;;;;5051200;28;20045;-85
2024/01/17 04:06:36;;;;;;;26.67;24.08;;;0.20;99.90;;;;;;5050983;28;20111;-84
2024/01/17 04:09:03;;;;;;;26.90;24.27;;;0.20;99.90;;;;;;5049923;28;20050;-85
2024/01/17 04:11:28;;;;;;;26.17;23.48;;;0.20;99.90;;;;;;5048821;28;20086;-84
2024/01/17 04:13:55;;;;;;;26.27;23.85;;;0.20;99.90;;;;;;5034079;28;20036;-85
2024/01/17 04:16:21;;;;;;;27.50;25.00;;;0.20;99.90;;;;;;5049227;28;20036;-85
2024/01/17 04:18:47;;;;;;;25.48;23.23;;;0.30;99.90;;;;;;5033862;28;20520;-84
2024/01/17 04:21:18;;;;;;;25.08;22.92;;;0.20;99.90;;;;;;5045324;28;20048;-83
2024/01/17 04:23:44;;;;;;;23.00;21.08;;;0.30;99.90;;;;;;5064145;28;20051;-84
2024/01/17 04:26:23;;;;;;;26.90;24.27;;;0.30;99.90;;;;;;5050357;28;20041;-84
2024/01/17 04:28:50;;;;;;;25.77;23.42;;;0.30;99.90;;;;;;5031150;28;20511;-85
2024/01/17 04:31:25;;;;;;;25.27;22.88;;;0.30;99.90;;;;;;5066312;28;20413;-84
2024/01/17 04:33:51;;;;;;;25.95;23.45;;;0.30;99.90;;;;;;5028504;28;20039;-85
2024/01/17 04:36:18;;;;;;;28.05;25.10;;;0.20;99.90;;;;;;5034117;28;20043;-83
2024/01/17 04:38:44;;;;;;;25.13;22.65;;;0.20;99.90;;;;;;5045505;28;20060;-84
2024/01/17 04:41:15;;;;;;;27.13;24.50;;;0.20;99.90;;;;;;5043062;28;20438;-84
2024/01/17 04:43:42;;;;;;;27.70;23.38;;;0.20;99.90;;;;;;5023377;28;20401;-84
2024/01/17 04:46:09;;;;;;;24.45;22.23;;;0.20;99.90;;;;;;5045265;28;20045;-84
2024/01/17 04:48:35;;;;;;;27.85;25.17;;;0.20;99.90;;;;;;5016270;28;20037;-83
2024/01/17 04:51:02;;;;;;;27.23;24.48;;;0.20;99.90;;;;;;5036572;28;20041;-85
2024/01/17 04:53:27;;;;;;;27.05;24.38;;;0.20;99.90;;;;;;5039362;28;20045;-84
2024/01/17 04:55:53;;;;;;;26.88;24.20;;;0.10;99.90;;;;;;5028420;28;20048;-85
2024/01/17 04:58:19;;;;;;;25.65;23.13;;;0.10;99.90;;;;;;5044463;28;20037;-84
2024/01/17 05:00:47;;;;;;;27.00;24.27;;;0.10;99.90;;;;;;5022671;28;20162;-84
2024/01/17 05:03:14;;;;;;;25.55;22.45;;;0.10;99.90;;;;;;5034550;28;20042;-84
2024/01/17 05:05:46;;;;;;;26.20;23.55;;;0.10;99.90;;;;;;5023056;28;20131;-84
2024/01/17 05:08:12;;;;;;;25.52;23.17;;;0.10;99.90;;;;;;5046120;28;20069;-85
2024/01/17 05:10:44;;;;;;;27.00;24.50;;;0.00;99.90;;;;;;5021321;28;20037;-85
2024/01/17 05:13:11;;;;;;;26.23;23.50;;;0.00;99.90;;;;;;5047502;28;20052;-83
2024/01/17 05:15:37;;;;;;;27.40;24.90;;;0.00;99.90;;;;;;5026145;28;20120;-84
2024/01/17 05:18:04;;;;;;;27.10;24.58;;;0.00;99.90;;;;;;5035457;28;20049;-85
2024/01/17 05:20:30;;;;;;;26.77;24.13;;;0.00;99.90;;;;;;5038111;28;20694;-85
2024/01/17 05:22:56;;;;;;;26.35;24.00;;;0.00;99.90;;;;;;5047620;28;20211;-84
2024/01/17 05:25:21;;;;;;;26.45;23.63;;;-0.10;99.90;;;;;;5043363;28;20519;-84
2024/01/17 05:27:52;;;;;;;27.85;25.40;;;-0.10;99.90;;;;;;5043292;28;20025;-84
2024/01/17 05:30:23;;;;;;;25.25;22.92;;;-0.10;99.90;;;;;;5023585;28;20086;-83
2024/01/17 05:32:49;;;;;;;25.77;23.27;;;-0.10;99.90;;;;;;5038482;28;20037;-85
2024/01/17 05:35:16;;;;;;;26.48;23.92;;;-0.10;99.90;;;;;;5040289;28;20495;-84
2024/01/17 05:37:42;;;;;;;25.95;23.52;;;-0.10;99.90;;;;;;5026925;28;20029;-84
2024/01/17 05:40:11;;;;;;;27.38;24.65;;;-0.20;99.90;;;;;;5066157;28;20123;-84
2024/01/17 05:42:37;;;;;;;25.75;23.35;;;-0.20;99.90;;;;;;5031688;28;20047;-84
2024/01/17 05:45:04;;;;;;;25.65;23.40;;;-0.30;99.90;;;;;;5030742;28;20093;-84
2024/01/17 05:47:30;;;;;;;26.33;23.88;;;-0.30;99.90;;;;;;5042108;28;20055;-84
2024/01/17 05:49:57;;;;;;;26.67;24.27;;;-0.30;99.90;;;;;;5064634;28;20036;-84
2024/01/17 05:52:26;;;;;;;27.17;24.60;;;-0.40;99.90;;;;;;5049846;28;20396;-84
2024/01/17 05:54:51;;;;;;;28.30;25.75;;;-0.40;99.90;;;;;;5043108;28;20041;-85
2024/01/17 05:57:17;;;;;;;28.27;25.77;;;-0.50;99.90;;;;;;5047184;28;20416;-84
2024/01/17 05:59:43;;;;;;;26.20;23.90;;;-0.50;99.90;;;;;;5062898;28;20076;-84
2024/01/17 06:02:08;;;;;;;28.02;25.52;;;-0.50;99.90;;;;;;5023648;28;20041;-84
2024/01/17 06:04:34;;;;;;;28.98;25.90;;;-0.60;99.90;;;;;;5028798;28;20037;-84
2024/01/17 06:06:59;;;;;;;29.17;26.67;;;-0.60;99.90;;;;;;5048711;28;20444;-84
2024/01/17 06:09:25;;;;;;;27.90;25.20;;;-0.70;99.90;;;;;;5048622;28;20121;-84
2024/01/17 06:11:51;;;;;;;26.45;24.10;;;-0.70;99.90;;;;;;5032260;28;20056;-85
2024/01/17 06:14:17;;;;;;;28.50;25.83;;;-0.80;99.90;;;;;;5034072;28;20040;-85
2024/01/17 06:16:44;;;;;;;27.40;24.75;;;-0.80;99.90;;;;;;5041677;28;20040;-84
2024/01/17 06:19:10;;;;;;;28.77;25.98;;;-0.80;99.90;;;;;;5047414;28;20045;-85
2024/01/17 06:21:36;;;;;;;28.35;25.88;;;-0.80;99.90;;;;;;5050814;28;20041;-84
2024/01/17 06:24:02;;;;;;;26.92;24.50;;;-0.90;99.90;;;;;;5034549;28;20123;-85
2024/01/17 06:26:27;;;;;;;29.20;26.15;;;-0.90;99.90;;;;;;5072072;28;20068;-85
2024/01/17 06:28:53;;;;;;;30.10;27.05;;;-1.00;99.90;;;;;;5036162;28;20044;-84
2024/01/17 06:31:24;;;;;;;28.50;25.70;;;-1.00;99.90;;;;;;5049871;28;20041;-85
2024/01/17 06:33:53;;;;;;;29.50;26.55;;;-1.00;99.90;;;;;;5050258;28;20048;-85
2024/01/17 06:36:18;;;;;;;28.45;25.85;;;-1.00;99.90;;;;;;5051036;28;20042;-85
2024/01/17 06:38:44;;;;;;;29.48;26.48;;;-1.00;99.90;;;;;;5036154;28;20478;-85
2024/01/17 06:41:10;;;;;;;28.42;25.92;;;-1.00;99.90;;;;;;5035748;28;20080;-85
2024/01/17 06:43:36;;;;;;;28.85;26.15;;;-1.00;99.90;;;;;;5071258;28;20047;-84
2024/01/17 06:46:03;;;;;;;28.80;26.10;;;-1.00;99.90;;;;;;5053440;28;20114;-85
2024/01/17 06:48:30;;;;;;;30.80;28.02;;;-1.00;99.90;;;;;;5035075;28;20044;-85
2024/01/17 06:50:55;;;;;;;29.17;26.58;;;-1.00;99.90;;;;;;5030530;28;20037;-85
2024/01/17 06:53:22;;;;;;;29.98;26.98;;;-1.00;99.90;;;;;;5034594;28;20052;-85
2024/01/17 06:55:48;;;;;;;28.85;25.90;;;-1.00;99.90;;;;;;5051283;28;20055;-85
2024/01/17 06:58:14;;;;;;;29.45;25.92;;;-1.00;99.90;;;;;;5049013;28;20037;-85
2024/01/17 07:00:39;;;;;;;28.55;25.98;;;-1.00;99.90;;;;;;5053014;28;20745;-84
2024/01/17 07:03:05;;;;;;;28.65;26.25;;;-1.00;99.90;;;;;;5032861;28;20040;-84
2024/01/17 07:05:31;;;;;;;29.33;26.75;;;-0.90;99.90;;;;;;5051937;28;20387;-84
2024/01/17 07:07:56;;;;;;;27.40;25.00;;;-0.90;99.90;;;;;;5053220;28;20041;-86
2024/01/17 07:10:26;;;;;;;27.85;25.40;;;-0.80;99.90;;;;;;5052340;28;20123;-85
2024/01/17 07:12:51;;;;;;;26.13;23.92;;;-0.80;99.90;;;;;;5051776;28;20792;-86
2024/01/17 07:15:17;;;;;;;28.38;25.98;;;-0.80;99.90;;;;;;5048816;28;20037;-85
2024/01/17 07:17:43;;;;;;;28.30;25.98;;;-0.80;99.90;;;;;;5068982;28;20040;-86
2024/01/17 07:20:10;;;;;;;27.65;24.88;;;-0.70;99.90;;;;;;5066736;28;20521;-85
2024/01/17 07:22:41;;;;;;;27.73;25.23;;;-0.80;99.90;;;;;;5051976;28;20037;-86
2024/01/17 07:25:10;;;;;;;38.08;35.08;;;-0.80;99.90;;;;;;5035662;28;20497;-85
2024/01/17 07:27:38;;;;;;;30.30;27.42;;;-0.80;99.90;;;;;;5048769;28;20119;-85
2024/01/17 07:30:04;;;;;;;30.15;27.40;;;-0.80;99.90;;;;;;5052316;28;20044;-85
2024/01/17 07:32:29;;;;;;;27.73;25.30;;;-0.80;99.90;;;;;;5052484;28;20040;-86
2024/01/17 07:34:55;;;;;;;30.13;27.02;;;-0.90;99.90;;;;;;5052840;28;20090;-86
2024/01/17 07:37:21;;;;;;;28.73;26.30;;;-0.90;99.90;;;;;;5035206;28;20110;-83
2024/01/17 07:39:46;;;;;;;28.30;25.63;;;-1.00;99.90;;;;;;5051305;28;20059;-85
2024/01/17 07:42:12;;;;;;;30.33;27.80;;;-1.00;99.90;;;;;;5052043;28;20047;-85
2024/01/17 07:44:38;;;;;;;29.40;26.63;;;-1.10;99.90;;;;;;5052279;28;20045;-85
2024/01/17 07:47:03;;;;;;;29.20;26.60;;;-1.20;99.90;;;;;;5033853;28;20477;-84
2024/01/17 07:49:29;;;;;;;30.63;27.63;;;-1.20;99.90;;;;;;5032278;28;20767;-86
2024/01/17 07:51:55;;;;;;;29.05;26.38;;;-1.20;99.90;;;;;;5035647;28;20074;-86
2024/01/17 07:54:21;;;;;;;30.55;27.95;;;-1.30;99.90;;;;;;5049208;28;20051;-84
2024/01/17 07:56:47;;;;;;;30.05;27.27;;;-1.30;99.90;;;;;;5052608;28;20040;-86
2024/01/17 07:59:13;;;;;;;28.55;26.23;;;-1.30;99.90;;;;;;5030083;28;20564;-86
2024/01/17 08:01:39;;;;;;;29.40;27.13;;;-1.30;99.90;;;;;;5069457;28;20040;-85
2024/01/17 08:04:05;;;;;;;30.83;27.90;;;-1.30;99.90;;;;;;5051085;28;20044;-85
2024/01/17 08:06:30;;;;;;;31.15;28.38;;;-1.30;99.90;;;;;;5034741;28;20105;-87
2024/01/17 08:08:56;;;;;;;30.50;27.90;;;-1.40;99.90;;;;;;5068228;28;20043;-86
2024/01/17 08:11:22;;;;;;;31.83;28.65;;;-1.40;99.90;;;;;;5051251;28;20052;-85
2024/01/17 08:13:47;;;;;;;30.08;27.58;;;-1.40;99.90;;;;;;5034646;28;20512;-86
2024/01/17 08:16:13;;;;;;;29.48;27.08;;;-1.30;99.90;;;;;;5027323;28;20045;-86
2024/01/17 08:18:39;;;;;;;30.23;27.08;;;-1.40;99.90;;;;;;5033937;28;20032;-86
2024/01/17 08:21:06;;;;;;;29.48;26.80;;;-1.40;99.90;;;;;;5051218;28;20045;-84
2024/01/17 08:23:32;;;;;;;30.65;27.65;;;-1.30;99.90;;;;;;5051830;28;20044;-85
2024/01/17 08:25:58;;;;;;;31.98;29.15;;;-1.30;99.90;;;;;;5034463;28;20047;-85
2024/01/17 08:28:23;;;;;;;32.67;29.55;;;-1.30;99.90;;;;;;5051902;28;20047;-86
2024/01/17 08:30:49;;;;;;;30.15;27.60;;;-1.30;99.90;;;;;;5024023;28;20540;-86
2024/01/17 08:33:15;;;;;;;32.22;29.05;;;-1.30;99.90;;;;;;5051018;28;20052;-86
2024/01/17 08:35:42;;;;;;;30.33;27.58;;;-1.30;99.90;;;;;;5051523;28;20410;-86
2024/01/17 08:38:07;;;;;;;30.52;27.73;;;-1.30;99.90;;;;;;5068449;28;20057;-86
2024/01/17 08:40:33;;;;;;;30.88;28.27;;;-1.20;99.90;;;;;;5068803;28;20702;-86
2024/01/17 08:42:59;;;;;;;30.73;27.95;;;-1.20;99.90;;;;;;5031929;28;20079;-87
2024/01/17 08:45:25;;;;;;;30.73;27.80;;;-1.20;99.90;;;;;;5032424;28;20732;-86
2024/01/17 08:47:51;;;;;;;30.65;27.83;;;-1.20;99.90;;;;;;5044065;28;20147;-87
2024/01/17 08:50:16;;;;;;;32.30;29.23;;;-1.10;99.90;;;;;;5068344;28;20392;-86
2024/01/17 08:52:42;;;;;;;32.45;29.20;;;-1.10;99.90;;;;;;5033745;28;20117;-85
2024/01/17 08:55:09;;;;;;;28.58;25.95;;;-1.00;99.90;;;;;;5045799;28;20051;-86
2024/01/17 08:57:38;;;;;;;30.90;28.27;;;-1.00;99.90;;;;;;5032622;28;20040;-86
2024/01/17 09:00:08;;;;;;;27.98;25.55;;;-0.90;99.90;;;;;;5028941;28;20128;-86
2024/01/17 09:02:34;;;;;;;27.58;25.08;;;-0.80;99.90;;;;;;5047338;28;20135;-86
2024/01/17 09:05:00;;;;;;;27.33;24.95;;;-0.80;99.90;;;;;;5034216;28;20115;-86
2024/01/17 09:07:26;;;;;;;28.13;25.63;;;-0.70;99.90;;;;;;5033459;28;20039;-86
2024/01/17 09:09:51;;;;;;;27.70;25.27;;;-0.60;99.90;;;;;;5029465;28;20143;-86
2024/01/17 09:12:18;;;;;;;28.05;25.50;;;-0.60;99.90;;;;;;5033380;28;20040;-86
2024/01/17 09:14:43;;;;;;;26.80;24.42;;;-0.60;99.90;;;;;;5037860;28;20053;-85
2024/01/17 09:17:09;;;;;;;27.70;25.20;;;-0.50;99.90;;;;;;5065803;28;20102;-84
2024/01/17 09:19:35;;;;;;;29.08;26.25;;;-0.40;99.90;;;;;;5021471;28;20074;-85
2024/01/17 09:22:01;;;;;;;29.13;26.35;;;-0.50;99.90;;;;;;5044946;28;20551;-85
2024/01/17 09:24:26;;;;;;;30.63;27.92;;;-0.40;99.90;;;;;;5038906;28;20480;-86
2024/01/17 09:26:52;;;;;;;31.10;28.38;;;-0.40;99.90;;;;;;5042744;28;20056;-87
2024/01/17 09:29:18;;;;;;;27.55;25.25;;;-0.40;99.90;;;;;;5021341;28;20607;-86
2024/01/17 09:31:44;;;;;;;29.10;26.52;;;-0.40;99.90;;;;;;5016697;28;20037;-85
2024/01/17 09:34:10;;;;;;;26.30;24.02;;;-0.30;99.90;;;;;;5012600;28;20050;-86
2024/01/17 09:36:35;;;;;;;29.23;26.42;;;-0.40;99.90;;;;;;5042269;28;20044;-85
2024/01/17 09:39:01;;;;;;;28.40;25.73;;;-0.30;99.90;;;;;;5024146;28;20068;-85
2024/01/17 09:41:27;;;;;;;28.85;26.20;;;-0.30;99.90;;;;;;5040232;28;20041;-85
2024/01/17 09:43:53;;;;;;;27.60;24.90;;;-0.30;99.90;;;;;;5038357;28;20052;-85
2024/01/17 09:46:19;;;;;;;26.33;24.10;;;-0.30;99.90;;;;;;5029613;28;20051;-86
2024/01/17 09:48:45;;;;;;;27.38;24.98;;;-0.30;99.90;;;;;;5028007;28;20037;-85
2024/01/17 09:51:18;;;;;;;26.88;24.60;;;-0.30;99.90;;;;;;5023659;28;20055;-85
2024/01/17 09:53:47;;;;;;;28.88;26.27;;;-0.20;99.90;;;;;;5069240;28;20500;-85
2024/01/17 09:56:14;;;;;;;27.73;25.02;;;-0.20;99.90;;;;;;5031636;28;20083;-86
2024/01/17 09:58:43;;;;;;;28.15;25.52;;;-0.10;99.90;;;;;;5032713;28;20179;-86
2024/01/17 10:01:10;;;;;;;27.13;24.70;;;-0.10;99.90;;;;;;5029570;28;20052;-86
2024/01/17 10:03:38;;;;;;;26.23;23.92;;;-0.10;99.90;;;;;;5062411;28;20178;-86
2024/01/17 10:06:06;;;;;;;27.40;24.45;;;0.00;99.90;;;;;;5028602;28;20076;-86
2024/01/17 10:08:33;;;;;;;26.55;24.25;;;0.00;99.90;;;;;;5050041;28;20501;-87
2024/01/17 10:10:59;;;;;;;26.75;24.20;;;0.00;99.90;;;;;;5050597;28;20440;-86
2024/01/17 10:13:24;;;;;;;25.88;23.48;;;0.00;99.90;;;;;;5030172;28;20117;-85
2024/01/17 10:15:50;;;;;;;26.58;24.02;;;0.00;99.90;;;;;;5031881;28;20123;-86
2024/01/17 10:18:16;;;;;;;26.77;24.13;;;0.10;99.90;;;;;;5053451;28;20044;-86
2024/01/17 10:20:42;;;;;;;26.98;24.58;;;0.10;99.90;;;;;;5071542;28;20044;-86
2024/01/17 10:23:08;;;;;;;25.55;23.15;;;0.20;99.90;;;;;;5035682;28;20041;-86
2024/01/17 10:25:44;;;;;;;25.00;22.95;;;0.30;99.90;;;;;;5036954;28;20029;-86
2024/01/17 10:28:10;;;;;;;27.00;24.60;;;0.30;99.90;;;;;;5036105;28;20083;-85
2024/01/17 10:30:41;;;;;;;25.20;23.00;;;0.30;99.90;;;;;;5037464;28;20559;-84
2024/01/17 10:33:07;;;;;;;26.38;23.95;;;0.40;99.90;;;;;;5049030;28;20047;-86
2024/01/17 10:35:33;;;;;;;24.92;22.65;;;0.40;99.90;;;;;;5051551;28;20048;-84
2024/01/17 10:37:59;;;;;;;26.05;23.65;;;0.50;99.90;;;;;;5053269;28;20057;-85
2024/01/17 10:40:25;;;;;;;25.63;23.02;;;0.50;99.90;;;;;;5037163;28;20405;-85
2024/01/17 10:43:14;;;;;;;25.33;21.63;;;0.50;99.90;;;;;;5053251;28;20071;-85
2024/01/17 10:45:42;;;;;;;24.17;21.95;;;0.60;99.90;;;;;;5071949;28;20093;-85
2024/01/17 10:48:08;;;;;;;24.98;22.75;;;0.60;99.90;;;;;;5030883;28;20409;-85
2024/01/17 10:50:34;;;;;;;23.85;21.75;;;0.60;99.90;;;;;;5052756;28;20113;-85
2024/01/17 10:53:05;;;;;;;25.35;22.95;;;0.70;99.90;;;;;;5052723;28;20143;-84
2024/01/17 10:55:36;;;;;;;24.60;22.60;;;0.70;99.90;;;;;;5047853;28;20408;-86
2024/01/17 10:58:10;;;;;;;24.77;22.58;;;0.70;99.90;;;;;;5044554;28;20068;-85
2024/01/17 11:00:40;;;;;;;25.30;23.00;;;0.70;99.90;;;;;;5031452;28;20048;-85
2024/01/17 11:03:09;;;;;;;25.50;22.95;;;0.70;99.90;;;;;;5027650;28;20044;-85
2024/01/17 11:05:48;;;;;;;23.08;21.17;;;0.80;99.90;;;;;;5048434;28;20032;-85
2024/01/17 11:08:15;;;;;;;24.13;22.02;;;0.80;99.90;;;;;;5035471;28;20094;-85
2024/01/17 11:10:43;;;;;;;24.70;22.55;;;0.90;99.90;;;;;;5052366;28;20032;-84
2024/01/17 11:13:16;;;;;;;22.20;20.10;;;1.00;99.90;;;;;;5035812;28;20417;-84
2024/01/17 11:15:42;;;;;;;23.55;21.35;;;1.00;99.90;;;;;;5033308;28;20071;-85
2024/01/17 11:18:11;;;;;;;23.75;21.45;;;1.00;99.90;;;;;;5051572;28;20095;-84
2024/01/17 11:20:39;;;;;;;23.38;21.17;;;1.00;99.90;;;;;;5030546;28;20044;-83
2024/01/17 11:23:27;;;;;;;23.45;21.17;;;1.10;99.90;;;;;;5048793;28;20484;-85
2024/01/17 11:26:18;;;;;;;23.75;21.35;;;1.10;99.90;;;;;;5052357;28;20072;-84
2024/01/17 11:28:58;;;;;;;23.05;20.88;;;1.10;99.90;;;;;;5046584;28;20502;-84
2024/01/17 11:31:46;;;;;;;23.40;21.17;;;1.10;99.90;;;;;;5041259;28;20041;-84
2024/01/17 11:34:11;;;;;;;23.15;21.20;;;1.10;99.90;;;;;;5029400;28;20491;-85
2024/01/17 11:36:45;;;;;;;22.95;20.65;;;1.10;99.90;;;;;;5028756;28;20146;-84
2024/01/17 11:39:15;;;;;;;;;;;1.00;99.90;;;;;;5044266;28;20429;-84
2024/01/17 11:41:45;;;;;;;23.30;21.08;;;1.00;99.90;;;;;;5041504;28;19924;-84
2024/01/17 11:44:12;;;;;;;22.20;20.00;;;1.00;99.90;;;;;;5029218;28;20122;-85
2024/01/17 11:46:38;;;;;;;23.15;21.05;;;1.00;99.90;;;;;;5031198;28;20041;-85
2024/01/17 11:49:09;;;;;;;24.20;22.00;;;1.00;99.90;;;;;;5063167;28;20040;-85
2024/01/17 11:51:37;;;;;;;23.85;21.55;;;1.00;99.90;;;;;;5030249;28;20136;-85
2024/01/17 11:54:09;;;;;;;24.38;21.85;;;0.90;99.90;;;;;;5031109;28;20123;-85
2024/01/17 11:56:35;;;;;;;23.35;21.15;;;0.90;99.90;;;;;;5031405;28;20037;-85
2024/01/17 11:59:06;;;;;;;23.92;21.73;;;1.00;99.90;;;;;;5063452;28;20066;-85
2024/01/17 12:01:32;;;;;;;25.20;23.00;;;0.90;99.90;;;;;;5027770;28;20044;-85
2024/01/17 12:03:57;;;;;;;23.98;21.73;;;1.00;99.90;;;;;;5026599;28;20040;-85
2024/01/17 12:06:23;;;;;;;23.13;21.05;;;1.00;99.90;;;;;;5026579;28;20412;-85
2024/01/17 12:08:52;;;;;;;23.75;21.48;;;0.90;99.90;;;;;;5044518;28;20637;-85
2024/01/17 12:11:18;;;;;;;23.58;21.20;;;0.90;99.90;;;;;;5026608;28;20124;-85
2024/01/17 12:13:47;;;;;;;24.05;22.00;;;0.90;99.90;;;;;;5035721;28;20157;-85
2024/01/17 12:16:12;;;;;;;23.77;21.65;;;0.90;99.90;;;;;;5035139;28;20162;-85
2024/01/17 12:18:38;;;;;;;23.98;21.83;;;0.90;99.90;;;;;;5023315;28;20565;-85
2024/01/17 12:21:04;;;;;;;24.02;21.65;;;0.90;99.90;;;;;;5042856;28;20036;-85
2024/01/17 12:23:35;;;;;;;22.77;20.27;;;0.90;99.90;;;;;;5028220;28;20124;-84
2024/01/17 12:26:01;;;;;;;21.30;19.42;;;0.90;99.90;;;;;;5060174;28;20146;-85
2024/01/17 12:28:28;;;;;;;21.88;19.98;;;0.90;99.90;;;;;;5044273;28;20079;-85
2024/01/17 12:31:02;;;;;;;23.60;21.45;;;0.90;99.90;;;;;;5027330;28;20052;-85